sensor_id;sensor_type;location;lat;lon;timestamp;P1;durP1;ratioP1;P2;durP2;ratioP2
1206;SDS011;593;53.184;8.216;2023-07-16T00:00:45;3.30;;;1.97;;
1206;SDS011;593;53.184;8.216;2023-07-16T00:03:10;1.10;;;1.00;;
1206;SDS011;593;53.184;8.216;2023-07-16T00:05:36;1.83;;;1.20;;
1206;SDS011;593;53.184;8.216;2023-07-16T00:08:03;1.37;;;1.27;;
1206;SDS011;593;53.184;8.216;2023-07-16T00:10:29;2.37;;;1.10;;
1206;SDS011;593;53.184;8.216;2023-07-16T00:12:54;1.27;;;0.90;;
1206;SDS011;593;53.184;8.216;2023-07-16T00:15:19;2.40;;;1.17;;
1206;SDS011;593;53.184;8.216;2023-07-16T00:17:44;1.50;;;1.10;;
1206;SDS011;593;53.184;8.216;2023-07-16T00:20:10;1.77;;;1.43;;
1206;SDS011;593;53.184;8.216;2023-07-16T00:22:36;1.70;;;1.17;;
1206;SDS011;593;53.184;8.216;2023-07-16T00:25:04;1.80;;;0.93;;
1206;SDS011;593;53.184;8.216;2023-07-16T00:27:30;1.83;;;1.13;;
1206;SDS011;593;53.184;8.216;2023-07-16T00:29:55;2.80;;;1.00;;
1206;SDS011;593;53.184;8.216;2023-07-16T00:32:20;3.03;;;2.40;;
1206;SDS011;593;53.184;8.216;2023-07-16T00:34:46;2.03;;;1.20;;
1206;SDS011;593;53.184;8.216;2023-07-16T00:37:11;2.20;;;1.03;;
1206;SDS011;593;53.184;8.216;2023-07-16T00:39:36;2.30;;;1.20;;
1206;SDS011;593;53.184;8.216;2023-07-16T00:42:02;3.57;;;1.37;;
1206;SDS011;593;53.184;8.216;2023-07-16T00:44:27;4.60;;;1.20;;
1206;SDS011;593;53.184;8.216;2023-07-16T00:46:52;3.90;;;1.37;;
1206;SDS011;593;53.184;8.216;2023-07-16T00:49:18;2.30;;;1.20;;
1206;SDS011;593;53.184;8.216;2023-07-16T00:51:43;1.40;;;1.30;;
1206;SDS011;593;53.184;8.216;2023-07-16T00:54:09;2.33;;;1.17;;
1206;SDS011;593;53.184;8.216;2023-07-16T00:56:34;2.27;;;1.00;;
1206;SDS011;593;53.184;8.216;2023-07-16T00:59:02;1.60;;;1.33;;
1206;SDS011;593;53.184;8.216;2023-07-16T01:01:27;2.30;;;0.90;;
1206;SDS011;593;53.184;8.216;2023-07-16T01:03:52;2.20;;;1.30;;
1206;SDS011;593;53.184;8.216;2023-07-16T01:06:22;2.50;;;1.20;;
1206;SDS011;593;53.184;8.216;2023-07-16T01:09:10;1.80;;;1.27;;
1206;SDS011;593;53.184;8.216;2023-07-16T01:11:42;1.40;;;1.30;;
1206;SDS011;593;53.184;8.216;2023-07-16T01:14:08;2.53;;;1.37;;
1206;SDS011;593;53.184;8.216;2023-07-16T01:16:35;3.03;;;1.97;;
1206;SDS011;593;53.184;8.216;2023-07-16T01:19:01;2.73;;;1.40;;
1206;SDS011;593;53.184;8.216;2023-07-16T01:21:28;3.33;;;1.53;;
1206;SDS011;593;53.184;8.216;2023-07-16T01:30:03;1.50;;;1.20;;
1206;SDS011;593;53.184;8.216;2023-07-16T01:32:30;1.23;;;1.13;;
1206;SDS011;593;53.184;8.216;2023-07-16T01:34:56;3.73;;;1.40;;
1206;SDS011;593;53.184;8.216;2023-07-16T01:37:22;3.43;;;1.37;;
1206;SDS011;593;53.184;8.216;2023-07-16T01:39:48;2.13;;;1.20;;
1206;SDS011;593;53.184;8.216;2023-07-16T01:42:13;2.70;;;1.57;;
1206;SDS011;593;53.184;8.216;2023-07-16T01:44:39;2.17;;;1.70;;
1206;SDS011;593;53.184;8.216;2023-07-16T01:47:06;3.80;;;1.13;;
1206;SDS011;593;53.184;8.216;2023-07-16T01:49:35;2.77;;;1.33;;
1206;SDS011;593;53.184;8.216;2023-07-16T01:52:01;1.80;;;1.13;;
1206;SDS011;593;53.184;8.216;2023-07-16T01:54:27;1.77;;;1.10;;
1206;SDS011;593;53.184;8.216;2023-07-16T01:56:53;3.83;;;1.33;;
1206;SDS011;593;53.184;8.216;2023-07-16T01:59:18;2.60;;;1.37;;
1206;SDS011;593;53.184;8.216;2023-07-16T02:01:43;2.03;;;1.40;;
1206;SDS011;593;53.184;8.216;2023-07-16T02:04:09;1.53;;;1.43;;
1206;SDS011;593;53.184;8.216;2023-07-16T02:06:34;2.40;;;1.43;;
1206;SDS011;593;53.184;8.216;2023-07-16T02:08:59;5.77;;;1.90;;
1206;SDS011;593;53.184;8.216;2023-07-16T02:11:24;1.50;;;1.30;;
1206;SDS011;593;53.184;8.216;2023-07-16T02:13:50;2.10;;;1.33;;
1206;SDS011;593;53.184;8.216;2023-07-16T02:16:15;1.37;;;1.20;;
1206;SDS011;593;53.184;8.216;2023-07-16T02:18:40;2.10;;;1.17;;
1206;SDS011;593;53.184;8.216;2023-07-16T02:21:06;2.00;;;1.80;;
1206;SDS011;593;53.184;8.216;2023-07-16T02:23:31;2.40;;;1.83;;
1206;SDS011;593;53.184;8.216;2023-07-16T02:25:56;2.90;;;1.50;;
1206;SDS011;593;53.184;8.216;2023-07-16T02:28:21;5.20;;;1.73;;
1206;SDS011;593;53.184;8.216;2023-07-16T02:30:49;2.10;;;1.90;;
1206;SDS011;593;53.184;8.216;2023-07-16T02:33:15;2.50;;;1.20;;
1206;SDS011;593;53.184;8.216;2023-07-16T02:35:40;5.03;;;1.50;;
1206;SDS011;593;53.184;8.216;2023-07-16T02:38:11;12.23;;;1.73;;
1206;SDS011;593;53.184;8.216;2023-07-16T02:40:36;3.00;;;1.57;;
1206;SDS011;593;53.184;8.216;2023-07-16T02:43:07;2.70;;;1.77;;
1206;SDS011;593;53.184;8.216;2023-07-16T02:45:33;1.63;;;1.43;;
1206;SDS011;593;53.184;8.216;2023-07-16T02:47:58;5.57;;;2.20;;
1206;SDS011;593;53.184;8.216;2023-07-16T02:50:23;7.13;;;1.93;;
1206;SDS011;593;53.184;8.216;2023-07-16T02:52:48;3.90;;;1.60;;
1206;SDS011;593;53.184;8.216;2023-07-16T02:55:14;1.60;;;1.40;;
1206;SDS011;593;53.184;8.216;2023-07-16T02:57:39;3.43;;;1.77;;
1206;SDS011;593;53.184;8.216;2023-07-16T03:00:04;3.13;;;1.47;;
1206;SDS011;593;53.184;8.216;2023-07-16T03:02:30;4.03;;;1.60;;
1206;SDS011;593;53.184;8.216;2023-07-16T03:04:55;4.60;;;1.90;;
1206;SDS011;593;53.184;8.216;2023-07-16T03:07:21;3.03;;;1.80;;
1206;SDS011;593;53.184;8.216;2023-07-16T03:09:46;2.60;;;1.50;;
1206;SDS011;593;53.184;8.216;2023-07-16T03:12:11;2.17;;;1.33;;
1206;SDS011;593;53.184;8.216;2023-07-16T03:14:37;2.67;;;1.40;;
1206;SDS011;593;53.184;8.216;2023-07-16T03:17:02;2.50;;;1.70;;
1206;SDS011;593;53.184;8.216;2023-07-16T03:19:27;3.30;;;1.90;;
1206;SDS011;593;53.184;8.216;2023-07-16T03:21:53;2.07;;;1.87;;
1206;SDS011;593;53.184;8.216;2023-07-16T03:24:18;4.10;;;1.83;;
1206;SDS011;593;53.184;8.216;2023-07-16T03:26:43;1.93;;;1.67;;
1206;SDS011;593;53.184;8.216;2023-07-16T03:29:08;2.50;;;1.67;;
1206;SDS011;593;53.184;8.216;2023-07-16T03:31:34;3.40;;;2.03;;
1206;SDS011;593;53.184;8.216;2023-07-16T03:33:59;3.20;;;1.53;;
1206;SDS011;593;53.184;8.216;2023-07-16T03:36:24;3.90;;;2.40;;
1206;SDS011;593;53.184;8.216;2023-07-16T03:38:49;2.73;;;1.43;;
1206;SDS011;593;53.184;8.216;2023-07-16T03:41:15;2.70;;;2.40;;
1206;SDS011;593;53.184;8.216;2023-07-16T03:43:40;2.90;;;1.80;;
1206;SDS011;593;53.184;8.216;2023-07-16T03:46:05;2.50;;;1.70;;
1206;SDS011;593;53.184;8.216;2023-07-16T03:48:33;2.70;;;1.93;;
1206;SDS011;593;53.184;8.216;2023-07-16T03:50:58;1.73;;;1.50;;
1206;SDS011;593;53.184;8.216;2023-07-16T03:53:23;3.10;;;2.13;;
1206;SDS011;593;53.184;8.216;2023-07-16T03:55:49;2.17;;;1.97;;
1206;SDS011;593;53.184;8.216;2023-07-16T03:58:14;4.77;;;1.70;;
1206;SDS011;593;53.184;8.216;2023-07-16T04:00:40;3.10;;;2.03;;
1206;SDS011;593;53.184;8.216;2023-07-16T04:03:06;4.53;;;2.40;;
1206;SDS011;593;53.184;8.216;2023-07-16T04:05:31;1.67;;;1.57;;
1206;SDS011;593;53.184;8.216;2023-07-16T04:07:57;2.87;;;2.10;;
1206;SDS011;593;53.184;8.216;2023-07-16T04:10:22;3.90;;;1.50;;
1206;SDS011;593;53.184;8.216;2023-07-16T04:12:47;6.37;;;2.53;;
1206;SDS011;593;53.184;8.216;2023-07-16T04:15:12;3.80;;;2.13;;
1206;SDS011;593;53.184;8.216;2023-07-16T04:17:38;3.40;;;2.00;;
1206;SDS011;593;53.184;8.216;2023-07-16T04:20:03;2.00;;;1.43;;
1206;SDS011;593;53.184;8.216;2023-07-16T04:22:30;4.53;;;2.07;;
1206;SDS011;593;53.184;8.216;2023-07-16T04:24:55;3.63;;;2.07;;
1206;SDS011;593;53.184;8.216;2023-07-16T04:27:20;3.20;;;1.93;;
1206;SDS011;593;53.184;8.216;2023-07-16T04:29:45;2.03;;;1.83;;
1206;SDS011;593;53.184;8.216;2023-07-16T04:32:11;3.67;;;2.03;;
1206;SDS011;593;53.184;8.216;2023-07-16T04:34:36;4.97;;;1.60;;
1206;SDS011;593;53.184;8.216;2023-07-16T04:37:01;4.23;;;2.23;;
1206;SDS011;593;53.184;8.216;2023-07-16T04:39:26;1.73;;;1.47;;
1206;SDS011;593;53.184;8.216;2023-07-16T04:41:52;7.90;;;2.03;;
1206;SDS011;593;53.184;8.216;2023-07-16T04:44:17;1.97;;;1.77;;
1206;SDS011;593;53.184;8.216;2023-07-16T04:46:42;5.40;;;1.90;;
1206;SDS011;593;53.184;8.216;2023-07-16T04:49:08;3.63;;;2.03;;
1206;SDS011;593;53.184;8.216;2023-07-16T04:51:33;5.73;;;2.63;;
1206;SDS011;593;53.184;8.216;2023-07-16T04:53:58;3.10;;;1.73;;
1206;SDS011;593;53.184;8.216;2023-07-16T04:56:23;5.00;;;2.23;;
1206;SDS011;593;53.184;8.216;2023-07-16T04:58:49;4.10;;;1.87;;
1206;SDS011;593;53.184;8.216;2023-07-16T05:01:14;4.43;;;1.90;;
1206;SDS011;593;53.184;8.216;2023-07-16T05:03:39;4.30;;;2.00;;
1206;SDS011;593;53.184;8.216;2023-07-16T05:06:05;3.97;;;1.73;;
1206;SDS011;593;53.184;8.216;2023-07-16T05:08:30;6.40;;;2.17;;
1206;SDS011;593;53.184;8.216;2023-07-16T05:10:55;5.10;;;2.10;;
1206;SDS011;593;53.184;8.216;2023-07-16T05:13:20;4.67;;;2.43;;
1206;SDS011;593;53.184;8.216;2023-07-16T05:15:46;7.60;;;2.93;;
1206;SDS011;593;53.184;8.216;2023-07-16T05:18:12;5.23;;;2.70;;
1206;SDS011;593;53.184;8.216;2023-07-16T05:20:37;7.50;;;2.27;;
1206;SDS011;593;53.184;8.216;2023-07-16T05:23:02;3.43;;;2.40;;
1206;SDS011;593;53.184;8.216;2023-07-16T05:25:28;3.33;;;2.10;;
1206;SDS011;593;53.184;8.216;2023-07-16T05:27:53;4.17;;;2.87;;
1206;SDS011;593;53.184;8.216;2023-07-16T05:30:18;4.83;;;2.07;;
1206;SDS011;593;53.184;8.216;2023-07-16T05:32:44;3.40;;;2.20;;
1206;SDS011;593;53.184;8.216;2023-07-16T05:35:09;5.20;;;2.50;;
1206;SDS011;593;53.184;8.216;2023-07-16T05:37:34;7.83;;;2.47;;
1206;SDS011;593;53.184;8.216;2023-07-16T05:40:00;3.23;;;2.73;;
1206;SDS011;593;53.184;8.216;2023-07-16T05:42:25;3.87;;;2.23;;
1206;SDS011;593;53.184;8.216;2023-07-16T05:44:50;3.97;;;2.30;;
1206;SDS011;593;53.184;8.216;2023-07-16T05:47:16;3.40;;;2.50;;
1206;SDS011;593;53.184;8.216;2023-07-16T05:49:41;3.13;;;2.27;;
1206;SDS011;593;53.184;8.216;2023-07-16T05:52:06;6.13;;;2.97;;
1206;SDS011;593;53.184;8.216;2023-07-16T05:54:32;3.67;;;2.50;;
1206;SDS011;593;53.184;8.216;2023-07-16T05:56:57;3.40;;;2.10;;
1206;SDS011;593;53.184;8.216;2023-07-16T05:59:22;5.07;;;2.20;;
1206;SDS011;593;53.184;8.216;2023-07-16T06:01:48;4.10;;;2.20;;
1206;SDS011;593;53.184;8.216;2023-07-16T06:04:13;2.53;;;1.90;;
1206;SDS011;593;53.184;8.216;2023-07-16T06:06:39;5.57;;;2.47;;
1206;SDS011;593;53.184;8.216;2023-07-16T06:09:04;10.23;;;2.50;;
1206;SDS011;593;53.184;8.216;2023-07-16T06:11:29;4.20;;;2.73;;
1206;SDS011;593;53.184;8.216;2023-07-16T06:13:55;4.07;;;2.03;;
1206;SDS011;593;53.184;8.216;2023-07-16T06:16:21;3.20;;;1.80;;
1206;SDS011;593;53.184;8.216;2023-07-16T06:18:46;2.87;;;2.47;;
1206;SDS011;593;53.184;8.216;2023-07-16T06:21:11;3.63;;;2.37;;
1206;SDS011;593;53.184;8.216;2023-07-16T06:23:37;2.30;;;1.97;;
1206;SDS011;593;53.184;8.216;2023-07-16T06:26:03;5.13;;;2.37;;
1206;SDS011;593;53.184;8.216;2023-07-16T06:28:28;2.40;;;1.83;;
1206;SDS011;593;53.184;8.216;2023-07-16T06:30:54;7.33;;;1.87;;
1206;SDS011;593;53.184;8.216;2023-07-16T06:33:19;4.87;;;1.83;;
1206;SDS011;593;53.184;8.216;2023-07-16T06:35:45;3.20;;;1.80;;
1206;SDS011;593;53.184;8.216;2023-07-16T06:38:11;2.30;;;2.10;;
1206;SDS011;593;53.184;8.216;2023-07-16T06:40:36;3.07;;;1.80;;
1206;SDS011;593;53.184;8.216;2023-07-16T06:43:02;3.03;;;2.00;;
1206;SDS011;593;53.184;8.216;2023-07-16T06:45:27;3.87;;;1.93;;
1206;SDS011;593;53.184;8.216;2023-07-16T06:47:53;3.37;;;1.93;;
1206;SDS011;593;53.184;8.216;2023-07-16T06:50:18;6.10;;;2.07;;
1206;SDS011;593;53.184;8.216;2023-07-16T06:52:43;2.03;;;1.80;;
1206;SDS011;593;53.184;8.216;2023-07-16T06:55:08;2.10;;;1.93;;
1206;SDS011;593;53.184;8.216;2023-07-16T06:57:34;4.27;;;1.90;;
1206;SDS011;593;53.184;8.216;2023-07-16T06:59:59;3.50;;;2.10;;
1206;SDS011;593;53.184;8.216;2023-07-16T07:02:24;1.97;;;1.77;;
1206;SDS011;593;53.184;8.216;2023-07-16T07:04:50;6.37;;;2.13;;
1206;SDS011;593;53.184;8.216;2023-07-16T07:07:16;2.40;;;1.97;;
1206;SDS011;593;53.184;8.216;2023-07-16T07:09:41;4.13;;;2.47;;
1206;SDS011;593;53.184;8.216;2023-07-16T07:12:07;6.73;;;2.33;;
1206;SDS011;593;53.184;8.216;2023-07-16T07:14:33;3.90;;;2.47;;
1206;SDS011;593;53.184;8.216;2023-07-16T07:16:58;4.63;;;2.13;;
1206;SDS011;593;53.184;8.216;2023-07-16T07:19:23;1.93;;;1.80;;
1206;SDS011;593;53.184;8.216;2023-07-16T07:21:49;5.13;;;2.27;;
1206;SDS011;593;53.184;8.216;2023-07-16T07:24:14;5.20;;;2.20;;
1206;SDS011;593;53.184;8.216;2023-07-16T07:26:39;2.20;;;1.80;;
1206;SDS011;593;53.184;8.216;2023-07-16T07:29:04;2.70;;;2.07;;
1206;SDS011;593;53.184;8.216;2023-07-16T07:31:30;4.13;;;3.07;;
1206;SDS011;593;53.184;8.216;2023-07-16T07:33:55;4.70;;;2.67;;
1206;SDS011;593;53.184;8.216;2023-07-16T07:36:22;3.63;;;2.17;;
1206;SDS011;593;53.184;8.216;2023-07-16T07:38:47;2.87;;;2.57;;
1206;SDS011;593;53.184;8.216;2023-07-16T07:41:13;2.23;;;2.07;;
1206;SDS011;593;53.184;8.216;2023-07-16T07:43:38;2.13;;;1.93;;
1206;SDS011;593;53.184;8.216;2023-07-16T07:46:03;1.97;;;1.77;;
1206;SDS011;593;53.184;8.216;2023-07-16T07:48:29;4.30;;;2.60;;
1206;SDS011;593;53.184;8.216;2023-07-16T07:50:54;2.77;;;2.53;;
1206;SDS011;593;53.184;8.216;2023-07-16T07:53:19;5.07;;;2.60;;
1206;SDS011;593;53.184;8.216;2023-07-16T07:55:45;2.27;;;2.07;;
1206;SDS011;593;53.184;8.216;2023-07-16T07:58:10;2.23;;;2.00;;
1206;SDS011;593;53.184;8.216;2023-07-16T08:00:36;2.80;;;1.80;;
1206;SDS011;593;53.184;8.216;2023-07-16T08:03:02;4.67;;;2.43;;
1206;SDS011;593;53.184;8.216;2023-07-16T08:05:27;3.67;;;2.23;;
1206;SDS011;593;53.184;8.216;2023-07-16T08:07:53;4.23;;;2.07;;
1206;SDS011;593;53.184;8.216;2023-07-16T08:10:18;2.53;;;2.20;;
1206;SDS011;593;53.184;8.216;2023-07-16T08:12:44;4.30;;;1.93;;
1206;SDS011;593;53.184;8.216;2023-07-16T08:15:10;5.07;;;3.33;;
1206;SDS011;593;53.184;8.216;2023-07-16T08:17:39;2.40;;;2.20;;
1206;SDS011;593;53.184;8.216;2023-07-16T08:20:05;4.33;;;2.83;;
1206;SDS011;593;53.184;8.216;2023-07-16T08:22:32;3.40;;;2.20;;
1206;SDS011;593;53.184;8.216;2023-07-16T08:24:57;3.40;;;2.00;;
1206;SDS011;593;53.184;8.216;2023-07-16T08:27:22;2.97;;;2.23;;
1206;SDS011;593;53.184;8.216;2023-07-16T08:29:47;2.90;;;1.60;;
1206;SDS011;593;53.184;8.216;2023-07-16T08:32:13;4.03;;;2.13;;
1206;SDS011;593;53.184;8.216;2023-07-16T08:34:38;4.30;;;2.10;;
1206;SDS011;593;53.184;8.216;2023-07-16T08:37:03;4.17;;;2.50;;
1206;SDS011;593;53.184;8.216;2023-07-16T08:39:30;3.90;;;2.40;;
1206;SDS011;593;53.184;8.216;2023-07-16T08:41:56;4.17;;;2.47;;
1206;SDS011;593;53.184;8.216;2023-07-16T08:44:21;4.67;;;2.50;;
1206;SDS011;593;53.184;8.216;2023-07-16T08:46:47;3.10;;;2.20;;
1206;SDS011;593;53.184;8.216;2023-07-16T08:49:13;2.90;;;2.10;;
1206;SDS011;593;53.184;8.216;2023-07-16T08:51:38;4.63;;;2.30;;
1206;SDS011;593;53.184;8.216;2023-07-16T08:54:04;3.57;;;2.30;;
1206;SDS011;593;53.184;8.216;2023-07-16T08:56:29;5.43;;;2.73;;
1206;SDS011;593;53.184;8.216;2023-07-16T08:58:55;4.20;;;2.50;;
1206;SDS011;593;53.184;8.216;2023-07-16T09:01:21;2.43;;;2.13;;
1206;SDS011;593;53.184;8.216;2023-07-16T09:03:46;3.00;;;1.97;;
1206;SDS011;593;53.184;8.216;2023-07-16T09:06:12;3.07;;;2.43;;
1206;SDS011;593;53.184;8.216;2023-07-16T09:08:37;5.13;;;2.40;;
1206;SDS011;593;53.184;8.216;2023-07-16T09:11:02;4.90;;;2.70;;
1206;SDS011;593;53.184;8.216;2023-07-16T09:13:28;4.50;;;2.40;;
1206;SDS011;593;53.184;8.216;2023-07-16T09:15:55;3.23;;;2.30;;
1206;SDS011;593;53.184;8.216;2023-07-16T09:18:21;2.17;;;1.97;;
1206;SDS011;593;53.184;8.216;2023-07-16T09:20:48;2.90;;;2.30;;
1206;SDS011;593;53.184;8.216;2023-07-16T09:23:18;3.13;;;2.70;;
1206;SDS011;593;53.184;8.216;2023-07-16T09:25:44;4.27;;;2.30;;
1206;SDS011;593;53.184;8.216;2023-07-16T09:28:09;3.97;;;2.43;;
1206;SDS011;593;53.184;8.216;2023-07-16T09:30:34;4.10;;;2.70;;
1206;SDS011;593;53.184;8.216;2023-07-16T09:33:15;2.63;;;2.30;;
1206;SDS011;593;53.184;8.216;2023-07-16T09:35:43;3.17;;;2.73;;
1206;SDS011;593;53.184;8.216;2023-07-16T09:38:09;3.40;;;2.83;;
1206;SDS011;593;53.184;8.216;2023-07-16T09:40:35;4.47;;;2.43;;
1206;SDS011;593;53.184;8.216;2023-07-16T09:43:01;2.90;;;2.60;;
1206;SDS011;593;53.184;8.216;2023-07-16T09:45:27;2.87;;;2.67;;
1206;SDS011;593;53.184;8.216;2023-07-16T09:47:53;4.20;;;2.50;;
1206;SDS011;593;53.184;8.216;2023-07-16T09:50:18;6.77;;;3.20;;
1206;SDS011;593;53.184;8.216;2023-07-16T09:52:44;5.50;;;2.43;;
1206;SDS011;593;53.184;8.216;2023-07-16T09:55:12;4.20;;;2.70;;
1206;SDS011;593;53.184;8.216;2023-07-16T09:57:41;2.40;;;2.20;;
1206;SDS011;593;53.184;8.216;2023-07-16T10:00:11;2.50;;;2.27;;
1206;SDS011;593;53.184;8.216;2023-07-16T10:02:38;3.13;;;2.17;;
1206;SDS011;593;53.184;8.216;2023-07-16T10:05:14;3.50;;;2.30;;
1206;SDS011;593;53.184;8.216;2023-07-16T10:07:51;4.27;;;2.67;;
1206;SDS011;593;53.184;8.216;2023-07-16T10:10:25;2.27;;;1.97;;
1206;SDS011;593;53.184;8.216;2023-07-16T10:12:55;2.40;;;2.20;;
1206;SDS011;593;53.184;8.216;2023-07-16T10:15:26;3.20;;;2.23;;
1206;SDS011;593;53.184;8.216;2023-07-16T10:17:53;3.17;;;2.40;;
1206;SDS011;593;53.184;8.216;2023-07-16T10:20:27;3.17;;;2.87;;
1206;SDS011;593;53.184;8.216;2023-07-16T10:23:11;2.70;;;2.00;;
1206;SDS011;593;53.184;8.216;2023-07-16T10:25:40;8.20;;;2.90;;
1206;SDS011;593;53.184;8.216;2023-07-16T10:28:06;2.37;;;2.00;;
1206;SDS011;593;53.184;8.216;2023-07-16T10:30:32;2.60;;;2.40;;
1206;SDS011;593;53.184;8.216;2023-07-16T10:32:58;4.23;;;2.40;;
1206;SDS011;593;53.184;8.216;2023-07-16T10:35:25;2.43;;;2.20;;
1206;SDS011;593;53.184;8.216;2023-07-16T10:37:50;5.23;;;2.30;;
1206;SDS011;593;53.184;8.216;2023-07-16T10:40:16;2.03;;;1.93;;
1206;SDS011;593;53.184;8.216;2023-07-16T10:42:41;3.90;;;2.20;;
1206;SDS011;593;53.184;8.216;2023-07-16T10:45:08;3.10;;;2.10;;
1206;SDS011;593;53.184;8.216;2023-07-16T10:47:35;2.23;;;2.10;;
1206;SDS011;593;53.184;8.216;2023-07-16T10:50:05;3.33;;;2.17;;
1206;SDS011;593;53.184;8.216;2023-07-16T10:52:33;3.87;;;3.17;;
1206;SDS011;593;53.184;8.216;2023-07-16T10:54:59;3.43;;;2.53;;
1206;SDS011;593;53.184;8.216;2023-07-16T10:57:24;2.70;;;2.30;;
1206;SDS011;593;53.184;8.216;2023-07-16T10:59:50;6.23;;;2.70;;
1206;SDS011;593;53.184;8.216;2023-07-16T11:02:17;2.73;;;2.47;;
1206;SDS011;593;53.184;8.216;2023-07-16T11:04:43;2.17;;;2.00;;
1206;SDS011;593;53.184;8.216;2023-07-16T11:07:10;2.83;;;1.80;;
1206;SDS011;593;53.184;8.216;2023-07-16T11:09:40;2.57;;;2.07;;
1206;SDS011;593;53.184;8.216;2023-07-16T11:12:17;2.37;;;2.17;;
1206;SDS011;593;53.184;8.216;2023-07-16T11:14:44;2.83;;;2.53;;
1206;SDS011;593;53.184;8.216;2023-07-16T11:17:14;3.00;;;2.20;;
1206;SDS011;593;53.184;8.216;2023-07-16T11:19:41;3.03;;;1.80;;
1206;SDS011;593;53.184;8.216;2023-07-16T11:22:11;3.80;;;2.83;;
1206;SDS011;593;53.184;8.216;2023-07-16T11:24:40;2.53;;;1.80;;
1206;SDS011;593;53.184;8.216;2023-07-16T11:27:14;3.60;;;2.30;;
1206;SDS011;593;53.184;8.216;2023-07-16T11:29:48;2.20;;;1.93;;
1206;SDS011;593;53.184;8.216;2023-07-16T11:32:31;4.90;;;1.90;;
1206;SDS011;593;53.184;8.216;2023-07-16T11:34:57;2.50;;;1.87;;
1206;SDS011;593;53.184;8.216;2023-07-16T11:37:27;2.40;;;2.00;;
1206;SDS011;593;53.184;8.216;2023-07-16T11:40:15;3.07;;;2.33;;
1206;SDS011;593;53.184;8.216;2023-07-16T11:42:42;3.57;;;2.43;;
1206;SDS011;593;53.184;8.216;2023-07-16T11:45:20;2.40;;;2.20;;
1206;SDS011;593;53.184;8.216;2023-07-16T11:47:53;2.50;;;2.10;;
1206;SDS011;593;53.184;8.216;2023-07-16T11:50:19;2.27;;;2.10;;
1206;SDS011;593;53.184;8.216;2023-07-16T11:52:54;3.17;;;2.50;;
1206;SDS011;593;53.184;8.216;2023-07-16T11:55:25;2.43;;;2.23;;
1206;SDS011;593;53.184;8.216;2023-07-16T11:57:51;1.67;;;1.57;;
1206;SDS011;593;53.184;8.216;2023-07-16T12:00:16;4.00;;;1.87;;
1206;SDS011;593;53.184;8.216;2023-07-16T12:02:42;2.57;;;2.30;;
1206;SDS011;593;53.184;8.216;2023-07-16T12:05:08;1.90;;;1.73;;
1206;SDS011;593;53.184;8.216;2023-07-16T12:07:34;3.40;;;2.10;;
1206;SDS011;593;53.184;8.216;2023-07-16T12:10:05;2.13;;;1.93;;
1206;SDS011;593;53.184;8.216;2023-07-16T12:12:32;5.50;;;1.73;;
1206;SDS011;593;53.184;8.216;2023-07-16T12:14:57;2.50;;;1.70;;
1206;SDS011;593;53.184;8.216;2023-07-16T12:17:23;3.00;;;2.07;;
1206;SDS011;593;53.184;8.216;2023-07-16T12:19:48;5.13;;;2.33;;
1206;SDS011;593;53.184;8.216;2023-07-16T12:22:13;3.00;;;2.43;;
1206;SDS011;593;53.184;8.216;2023-07-16T12:24:42;1.93;;;1.83;;
1206;SDS011;593;53.184;8.216;2023-07-16T12:27:07;2.20;;;2.10;;
1206;SDS011;593;53.184;8.216;2023-07-16T12:29:33;2.93;;;2.10;;
1206;SDS011;593;53.184;8.216;2023-07-16T12:31:58;3.13;;;2.30;;
1206;SDS011;593;53.184;8.216;2023-07-16T12:34:24;3.73;;;2.00;;
1206;SDS011;593;53.184;8.216;2023-07-16T12:36:50;4.43;;;2.30;;
1206;SDS011;593;53.184;8.216;2023-07-16T12:39:15;2.50;;;1.50;;
1206;SDS011;593;53.184;8.216;2023-07-16T12:41:41;2.17;;;1.87;;
1206;SDS011;593;53.184;8.216;2023-07-16T12:44:07;2.27;;;2.00;;
1206;SDS011;593;53.184;8.216;2023-07-16T12:46:33;2.63;;;2.43;;
1206;SDS011;593;53.184;8.216;2023-07-16T12:48:58;3.10;;;2.57;;
1206;SDS011;593;53.184;8.216;2023-07-16T12:51:23;3.00;;;2.30;;
1206;SDS011;593;53.184;8.216;2023-07-16T12:53:49;3.27;;;2.10;;
1206;SDS011;593;53.184;8.216;2023-07-16T12:56:14;2.37;;;2.20;;
1206;SDS011;593;53.184;8.216;2023-07-16T12:58:39;3.77;;;2.50;;
1206;SDS011;593;53.184;8.216;2023-07-16T13:01:04;2.53;;;2.20;;
1206;SDS011;593;53.184;8.216;2023-07-16T13:03:30;3.00;;;2.20;;
1206;SDS011;593;53.184;8.216;2023-07-16T13:05:55;2.70;;;2.50;;
1206;SDS011;593;53.184;8.216;2023-07-16T13:08:20;2.60;;;2.40;;
1206;SDS011;593;53.184;8.216;2023-07-16T13:10:45;3.33;;;2.50;;
1206;SDS011;593;53.184;8.216;2023-07-16T13:13:11;2.33;;;2.10;;
1206;SDS011;593;53.184;8.216;2023-07-16T13:15:36;2.90;;;2.20;;
1206;SDS011;593;53.184;8.216;2023-07-16T13:18:01;3.17;;;2.43;;
1206;SDS011;593;53.184;8.216;2023-07-16T13:20:27;2.80;;;2.60;;
1206;SDS011;593;53.184;8.216;2023-07-16T13:22:54;3.33;;;2.73;;
1206;SDS011;593;53.184;8.216;2023-07-16T13:25:20;3.83;;;2.47;;
1206;SDS011;593;53.184;8.216;2023-07-16T13:27:45;2.63;;;2.30;;
1206;SDS011;593;53.184;8.216;2023-07-16T13:30:11;3.53;;;2.60;;
1206;SDS011;593;53.184;8.216;2023-07-16T13:32:37;4.57;;;3.03;;
1206;SDS011;593;53.184;8.216;2023-07-16T13:35:02;2.67;;;2.47;;
1206;SDS011;593;53.184;8.216;2023-07-16T13:37:28;2.57;;;2.37;;
1206;SDS011;593;53.184;8.216;2023-07-16T13:39:53;5.17;;;3.57;;
1206;SDS011;593;53.184;8.216;2023-07-16T13:42:19;4.67;;;3.00;;
1206;SDS011;593;53.184;8.216;2023-07-16T13:44:44;3.37;;;3.00;;
1206;SDS011;593;53.184;8.216;2023-07-16T13:47:09;3.40;;;2.40;;
1206;SDS011;593;53.184;8.216;2023-07-16T13:49:34;4.13;;;2.97;;
1206;SDS011;593;53.184;8.216;2023-07-16T13:52:00;4.37;;;2.70;;
1206;SDS011;593;53.184;8.216;2023-07-16T13:54:25;3.20;;;2.80;;
1206;SDS011;593;53.184;8.216;2023-07-16T13:56:50;5.10;;;3.50;;
1206;SDS011;593;53.184;8.216;2023-07-16T13:59:16;3.53;;;3.23;;
1206;SDS011;593;53.184;8.216;2023-07-16T14:01:41;5.70;;;2.97;;
1206;SDS011;593;53.184;8.216;2023-07-16T14:04:06;3.07;;;2.87;;
1206;SDS011;593;53.184;8.216;2023-07-16T14:06:32;3.53;;;2.97;;
1206;SDS011;593;53.184;8.216;2023-07-16T14:08:57;5.33;;;2.87;;
1206;SDS011;593;53.184;8.216;2023-07-16T14:11:23;5.87;;;3.20;;
1206;SDS011;593;53.184;8.216;2023-07-16T14:13:48;2.80;;;2.60;;
1206;SDS011;593;53.184;8.216;2023-07-16T14:16:18;3.67;;;2.70;;
1206;SDS011;593;53.184;8.216;2023-07-16T14:18:43;3.30;;;3.00;;
1206;SDS011;593;53.184;8.216;2023-07-16T14:21:09;3.43;;;3.13;;
1206;SDS011;593;53.184;8.216;2023-07-16T14:23:35;2.80;;;2.60;;
1206;SDS011;593;53.184;8.216;2023-07-16T14:26:00;3.20;;;2.57;;
1206;SDS011;593;53.184;8.216;2023-07-16T14:28:27;4.50;;;2.67;;
1206;SDS011;593;53.184;8.216;2023-07-16T14:30:53;2.30;;;2.10;;
1206;SDS011;593;53.184;8.216;2023-07-16T14:33:18;2.43;;;2.10;;
1206;SDS011;593;53.184;8.216;2023-07-16T14:35:44;3.63;;;2.33;;
1206;SDS011;593;53.184;8.216;2023-07-16T14:38:09;4.03;;;2.17;;
1206;SDS011;593;53.184;8.216;2023-07-16T14:40:35;2.77;;;2.20;;
1206;SDS011;593;53.184;8.216;2023-07-16T14:43:00;3.53;;;2.40;;
1206;SDS011;593;53.184;8.216;2023-07-16T14:45:25;2.80;;;2.30;;
1206;SDS011;593;53.184;8.216;2023-07-16T14:47:51;2.70;;;2.47;;
1206;SDS011;593;53.184;8.216;2023-07-16T14:50:16;3.27;;;2.73;;
1206;SDS011;593;53.184;8.216;2023-07-16T14:52:41;3.00;;;2.70;;
1206;SDS011;593;53.184;8.216;2023-07-16T14:55:07;3.47;;;2.37;;
1206;SDS011;593;53.184;8.216;2023-07-16T14:57:33;3.27;;;2.97;;
1206;SDS011;593;53.184;8.216;2023-07-16T14:59:58;4.60;;;2.63;;
1206;SDS011;593;53.184;8.216;2023-07-16T15:02:24;3.40;;;2.20;;
1206;SDS011;593;53.184;8.216;2023-07-16T15:04:49;2.23;;;2.03;;
1206;SDS011;593;53.184;8.216;2023-07-16T15:07:15;4.97;;;2.50;;
1206;SDS011;593;53.184;8.216;2023-07-16T15:09:40;3.10;;;2.80;;
1206;SDS011;593;53.184;8.216;2023-07-16T15:12:05;5.23;;;3.33;;
1206;SDS011;593;53.184;8.216;2023-07-16T15:14:31;5.93;;;3.10;;
1206;SDS011;593;53.184;8.216;2023-07-16T15:16:58;6.27;;;4.00;;
1206;SDS011;593;53.184;8.216;2023-07-16T15:19:23;4.07;;;2.40;;
1206;SDS011;593;53.184;8.216;2023-07-16T15:21:48;3.57;;;2.50;;
1206;SDS011;593;53.184;8.216;2023-07-16T15:24:14;3.40;;;3.00;;
1206;SDS011;593;53.184;8.216;2023-07-16T15:26:39;2.63;;;2.43;;
1206;SDS011;593;53.184;8.216;2023-07-16T15:29:04;3.87;;;2.73;;